createdAt,value
2018-06-11T00:01:44.246Z,82.80
2018-06-11T00:04:42.797Z,82.50
2018-06-11T00:07:41.516Z,82.80
2018-06-11T00:10:39.599Z,82.30
2018-06-11T00:13:37.443Z,82.60
2018-06-11T00:16:35.847Z,82.20
2018-06-11T00:19:34.002Z,82.30
2018-06-11T00:22:31.997Z,82.50
2018-06-11T00:25:30.550Z,82.50
2018-06-11T00:28:28.924Z,82.50
2018-06-11T00:31:27.094Z,83.00
2018-06-11T00:34:25.223Z,83.70
2018-06-11T00:37:23.426Z,82.70
2018-06-11T00:40:21.559Z,83.30
2018-06-11T00:43:19.841Z,84.00
2018-06-11T00:46:17.815Z,84.00
2018-06-11T00:49:16.226Z,83.90
2018-06-11T00:52:14.674Z,82.80
2018-06-11T00:55:12.883Z,83.20
2018-06-11T00:58:11.150Z,83.80
2018-06-11T01:01:09.725Z,84.00
2018-06-11T01:04:08.306Z,82.90
2018-06-11T01:07:06.739Z,83.30
2018-06-11T01:10:05.210Z,83.70
2018-06-11T01:13:03.514Z,83.30
2018-06-11T01:16:01.934Z,83.80
2018-06-11T01:19:00.330Z,83.80
2018-06-11T01:21:58.982Z,84.10
2018-06-11T01:24:57.142Z,84.60
2018-06-11T01:27:55.915Z,85.10
2018-06-11T01:30:54.309Z,84.30
2018-06-11T01:33:52.464Z,84.10
2018-06-11T01:36:50.622Z,84.00
2018-06-11T01:39:48.811Z,84.10
2018-06-11T01:42:47.224Z,84.50
2018-06-11T01:45:45.467Z,84.40
2018-06-11T01:48:44.020Z,84.40
2018-06-11T01:51:42.437Z,85.30
2018-06-11T01:54:40.724Z,85.40
2018-06-11T01:57:39.425Z,84.60
2018-06-11T02:00:37.894Z,84.50
2018-06-11T02:03:35.992Z,83.90
2018-06-11T02:06:34.302Z,84.00
2018-06-11T02:09:32.933Z,84.20
2018-06-11T02:12:31.165Z,84.10
2018-06-11T02:15:29.538Z,84.00
2018-06-11T02:18:28.017Z,84.10
2018-06-11T02:21:26.696Z,83.60
2018-06-11T02:24:25.145Z,83.80
2018-06-11T02:30:14.333Z,83.50
2018-06-11T02:33:13.330Z,83.70
2018-06-11T02:36:11.340Z,84.00
2018-06-11T02:39:09.554Z,83.70
2018-06-11T02:42:07.817Z,83.80
2018-06-11T02:45:06.227Z,83.80
2018-06-11T02:48:04.623Z,83.70
2018-06-11T02:51:02.735Z,83.40
2018-06-11T02:54:00.954Z,84.50
2018-06-11T02:56:59.310Z,84.20
2018-06-11T02:59:57.440Z,85.20
2018-06-11T03:02:55.732Z,85.40
2018-06-11T03:05:53.874Z,84.40
2018-06-11T03:08:52.111Z,84.90
2018-06-11T03:11:50.420Z,85.00
2018-06-11T03:14:48.614Z,85.30
2018-06-11T03:17:46.849Z,85.50
2018-06-11T03:20:45.898Z,84.60
2018-06-11T03:23:44.283Z,85.40
2018-06-11T03:26:42.442Z,85.80
2018-06-11T03:29:40.831Z,85.20
2018-06-11T03:32:38.934Z,84.90
2018-06-11T03:35:38.726Z,85.10
2018-06-11T03:38:37.002Z,85.80
2018-06-11T03:41:35.499Z,85.60
2018-06-11T03:44:33.898Z,85.50
2018-06-11T03:47:32.582Z,84.50
2018-06-11T03:50:30.631Z,85.20
2018-06-11T03:53:28.605Z,85.00
2018-06-11T03:56:27.042Z,84.60
2018-06-11T03:59:25.686Z,84.40
2018-06-11T04:02:23.812Z,84.70
2018-06-11T04:05:22.802Z,84.60
2018-06-11T04:08:21.133Z,84.10
2018-06-11T04:11:19.318Z,82.60
2018-06-11T04:14:18.100Z,82.80
2018-06-11T04:17:16.747Z,83.70
2018-06-11T04:20:15.290Z,82.30
2018-06-11T04:23:13.806Z,82.90
2018-06-11T04:26:12.244Z,82.70
2018-06-11T04:29:10.572Z,83.00
2018-06-11T04:32:08.530Z,82.40
2018-06-11T04:35:06.998Z,81.80
2018-06-11T04:38:05.311Z,82.10
2018-06-11T04:41:03.547Z,82.60
2018-06-11T04:44:01.678Z,81.00
2018-06-11T04:47:00.244Z,80.40
2018-06-11T04:49:58.854Z,82.10
2018-06-11T04:52:57.620Z,81.40
2018-06-11T04:55:56.599Z,82.00
2018-06-11T04:58:54.713Z,80.70
2018-06-11T05:01:53.316Z,80.80
2018-06-11T05:04:51.807Z,81.60
2018-06-11T05:07:50.380Z,80.50
2018-06-11T05:10:50.101Z,80.10
2018-06-11T05:13:48.619Z,80.50
2018-06-11T05:16:46.739Z,79.80
2018-06-11T05:19:44.715Z,79.40
2018-06-11T05:22:43.097Z,79.20
2018-06-11T05:25:41.237Z,78.80
2018-06-11T05:28:39.648Z,79.20
2018-06-11T05:31:38.657Z,79.40
2018-06-11T05:34:36.859Z,80.70
2018-06-11T05:37:35.538Z,78.00
2018-06-11T05:40:33.717Z,76.70
2018-06-11T05:43:32.687Z,78.00
2018-06-11T05:46:30.910Z,77.90
2018-06-11T05:49:29.641Z,78.10
2018-06-11T05:52:27.856Z,79.20
2018-06-11T05:55:25.690Z,79.40
2018-06-11T05:58:24.202Z,77.70
2018-06-11T06:01:22.833Z,77.00
2018-06-11T06:04:20.772Z,77.90
2018-06-11T06:07:18.941Z,77.70
2018-06-11T06:10:17.145Z,78.10
2018-06-11T06:13:15.192Z,77.90
2018-06-11T06:16:13.395Z,76.90
2018-06-11T06:19:11.628Z,76.60
2018-06-11T06:22:09.963Z,77.00
2018-06-11T06:25:08.206Z,74.70
2018-06-11T06:28:06.042Z,75.60
2018-06-11T06:31:05.007Z,75.10
2018-06-11T06:34:03.635Z,72.60
2018-06-11T06:37:02.260Z,72.70
2018-06-11T06:40:00.523Z,74.30
2018-06-11T06:42:58.966Z,72.80
2018-06-11T06:45:58.807Z,69.50
2018-06-11T06:48:57.310Z,71.20
2018-06-11T06:51:55.565Z,69.70
2018-06-11T06:54:53.893Z,70.00
2018-06-11T06:57:52.334Z,67.90
2018-06-11T07:00:50.715Z,68.90
2018-06-11T07:03:49.262Z,68.70
2018-06-11T07:06:47.987Z,67.50
2018-06-11T07:09:46.638Z,65.50
2018-06-11T07:12:45.206Z,67.80
2018-06-11T07:15:43.630Z,66.40
2018-06-11T07:18:41.864Z,67.50
2018-06-11T07:21:40.588Z,67.60
2018-06-11T07:24:39.207Z,65.50
2018-06-11T07:27:37.894Z,64.10
2018-06-11T07:30:36.725Z,63.10
2018-06-11T07:33:34.834Z,66.90
2018-06-11T07:36:33.338Z,66.50
2018-06-11T07:39:31.423Z,67.10
2018-06-11T07:42:29.518Z,68.10
2018-06-11T07:45:27.861Z,66.30
2018-06-11T07:48:26.778Z,65.30
2018-06-11T07:51:24.979Z,63.70
2018-06-11T07:54:23.120Z,62.00
2018-06-11T07:57:21.357Z,59.90
2018-06-11T08:00:19.961Z,63.00
2018-06-11T08:03:18.585Z,59.60
2018-06-11T08:06:16.770Z,61.70
2018-06-11T08:09:14.994Z,63.70
2018-06-11T08:12:13.455Z,69.80
2018-06-11T08:15:11.406Z,65.30
2018-06-11T08:18:09.707Z,62.80
2018-06-11T08:21:07.683Z,61.40
2018-06-11T08:24:06.098Z,63.00
2018-06-11T08:27:04.196Z,60.50
2018-06-11T08:30:03.114Z,61.40
2018-06-11T08:33:01.569Z,66.30
2018-06-11T08:35:59.594Z,66.40
2018-06-11T08:38:57.551Z,61.90
2018-06-11T08:41:55.332Z,62.60
2018-06-11T08:44:53.834Z,64.90
2018-06-11T08:47:52.149Z,61.10
2018-06-11T08:50:50.583Z,58.20
2018-06-11T08:53:49.158Z,56.70
2018-06-11T08:56:47.342Z,57.20
2018-06-11T08:59:45.741Z,57.30
2018-06-11T09:02:43.957Z,59.80
2018-06-11T09:05:42.157Z,59.80
2018-06-11T09:08:40.559Z,59.40
2018-06-11T09:11:38.922Z,62.00
2018-06-11T09:14:37.529Z,58.70
2018-06-11T09:17:36.117Z,58.40
2018-06-11T09:20:34.418Z,63.70
2018-06-11T09:23:33.089Z,61.30
2018-06-11T09:26:31.076Z,57.00
2018-06-11T09:29:29.410Z,51.70
2018-06-11T09:32:28.053Z,47.80
2018-06-11T09:35:26.335Z,49.00
2018-06-11T09:38:24.693Z,49.70
2018-06-11T09:41:22.981Z,52.50
2018-06-11T09:44:21.286Z,58.10
2018-06-11T09:47:20.153Z,54.40
2018-06-11T09:50:18.734Z,50.30
2018-06-11T09:53:16.830Z,47.00
2018-06-11T09:56:15.237Z,54.00
2018-06-11T09:59:13.446Z,52.40
2018-06-11T10:02:11.856Z,48.60
2018-06-11T10:05:10.211Z,44.00
2018-06-11T10:08:08.742Z,42.80
2018-06-11T10:11:07.122Z,45.80
2018-06-11T10:14:06.440Z,55.10
2018-06-11T10:17:04.850Z,56.30
2018-06-11T10:20:03.081Z,52.70
2018-06-11T10:23:02.320Z,51.80
2018-06-11T10:26:01.324Z,51.70
2018-06-11T10:29:01.512Z,55.00
2018-06-11T10:32:00.016Z,49.30
2018-06-11T10:34:58.642Z,51.10
2018-06-11T10:37:57.229Z,54.70
2018-06-11T10:40:55.665Z,48.30
2018-06-11T10:43:54.557Z,52.00
2018-06-11T10:46:52.956Z,54.40
2018-06-11T10:49:51.372Z,55.90
2018-06-11T10:52:49.722Z,52.30
2018-06-11T10:55:48.115Z,47.70
2018-06-11T10:58:46.621Z,45.60
2018-06-11T11:01:44.722Z,49.40
2018-06-11T11:04:43.312Z,50.30
2018-06-11T11:07:41.892Z,51.90
2018-06-11T11:10:40.119Z,56.10
2018-06-11T11:13:38.117Z,58.00
2018-06-11T11:16:36.684Z,55.10
2018-06-11T11:19:34.830Z,56.00
2018-06-11T11:22:33.050Z,54.50
2018-06-11T11:25:31.923Z,52.50
2018-06-11T11:28:29.969Z,51.80
2018-06-11T11:31:28.380Z,50.20
2018-06-11T11:34:26.666Z,52.80
2018-06-11T11:37:26.078Z,54.30
2018-06-11T11:40:24.646Z,57.10
2018-06-11T11:43:23.202Z,53.30
2018-06-11T11:46:21.584Z,53.30
2018-06-11T11:49:20.304Z,59.10
2018-06-11T11:52:18.611Z,57.40
2018-06-11T11:55:16.730Z,59.00
2018-06-11T11:58:15.036Z,55.80
2018-06-11T12:01:13.159Z,54.40
2018-06-11T12:04:11.971Z,55.80
2018-06-11T12:07:10.510Z,54.20
2018-06-11T12:10:08.685Z,56.30
2018-06-11T12:13:06.972Z,55.30
2018-06-11T12:16:05.354Z,54.00
2018-06-11T12:19:03.673Z,54.10
2018-06-11T12:22:02.344Z,54.00
2018-06-11T12:25:00.850Z,53.60
2018-06-11T12:27:58.894Z,55.40
2018-06-11T12:30:57.049Z,55.00
2018-06-11T12:33:55.271Z,54.60
2018-06-11T12:36:53.685Z,55.10
2018-06-11T12:39:52.045Z,55.50
2018-06-11T12:42:50.228Z,54.40
2018-06-11T12:48:39.192Z,52.70
2018-06-11T12:51:37.243Z,53.70
2018-06-11T12:54:35.670Z,54.60
2018-06-11T12:57:33.941Z,54.00
2018-06-11T13:00:32.121Z,53.50
2018-06-11T13:03:30.615Z,53.80
2018-06-11T13:06:28.531Z,51.80
2018-06-11T13:09:29.015Z,50.90
2018-06-11T13:12:27.449Z,50.90
2018-06-11T13:15:26.191Z,53.90
2018-06-11T13:18:24.875Z,55.50
2018-06-11T13:21:23.487Z,54.50
2018-06-11T13:24:21.990Z,56.50
2018-06-11T13:27:20.749Z,55.00
2018-06-11T13:30:20.047Z,54.30
2018-06-11T13:33:18.420Z,54.00
2018-06-11T13:36:17.241Z,57.30
2018-06-11T13:39:16.907Z,55.50
2018-06-11T13:42:15.835Z,55.10
2018-06-11T13:45:14.305Z,51.60
2018-06-11T13:48:12.329Z,54.30
2018-06-11T13:51:10.677Z,55.90
2018-06-11T13:54:09.267Z,56.80
2018-06-11T13:57:08.039Z,54.90
2018-06-11T14:00:05.894Z,55.60
2018-06-11T14:03:04.701Z,51.90
2018-06-11T14:06:02.764Z,52.00
2018-06-11T14:09:01.480Z,52.20
2018-06-11T14:12:00.107Z,51.60
2018-06-11T14:14:58.434Z,52.90
2018-06-11T14:17:57.043Z,53.70
2018-06-11T14:20:55.524Z,56.10
2018-06-11T14:23:53.835Z,53.60
2018-06-11T14:26:52.330Z,51.40
2018-06-11T14:29:50.601Z,53.70
2018-06-11T14:32:49.492Z,51.90
2018-06-11T14:35:48.281Z,51.00
2018-06-11T14:38:46.751Z,54.70
2018-06-11T14:41:45.184Z,49.70
2018-06-11T14:44:44.768Z,50.60
2018-06-11T14:47:42.951Z,51.50
2018-06-11T14:50:42.714Z,53.00
2018-06-11T14:53:41.129Z,51.80
2018-06-11T14:56:39.600Z,52.90
2018-06-11T14:59:38.910Z,53.70
2018-06-11T15:02:37.758Z,51.10
2018-06-11T15:05:36.378Z,52.90
2018-06-11T15:08:34.955Z,51.70
2018-06-11T15:11:33.633Z,53.40
2018-06-11T15:17:23.246Z,51.50
2018-06-11T15:23:12.504Z,50.10
2018-06-11T15:26:11.010Z,49.50
2018-06-11T15:29:09.398Z,51.30
2018-06-11T15:32:08.100Z,54.40
2018-06-11T15:35:06.728Z,52.30
2018-06-11T15:38:05.260Z,52.40
2018-06-11T15:41:03.842Z,55.20
2018-06-11T15:44:01.961Z,53.30
2018-06-11T15:47:00.114Z,52.20
2018-06-11T15:49:59.284Z,53.40
2018-06-11T15:52:57.771Z,52.80
2018-06-11T15:55:56.344Z,54.20
2018-06-11T15:58:55.204Z,51.60
2018-06-11T16:01:53.930Z,52.60
2018-06-11T16:04:52.043Z,52.20
2018-06-11T16:07:50.429Z,53.00
2018-06-11T16:10:48.447Z,53.00
2018-06-11T16:13:46.793Z,56.10
2018-06-11T16:19:35.439Z,54.80
2018-06-11T16:22:33.329Z,56.50
2018-06-11T16:25:31.695Z,55.00
2018-06-11T16:28:29.601Z,54.90
2018-06-11T16:31:27.955Z,56.70
2018-06-11T16:34:26.113Z,55.60
2018-06-11T16:37:24.654Z,55.00
2018-06-11T16:40:22.850Z,55.10
2018-06-11T16:43:21.060Z,55.90
2018-06-11T16:46:19.682Z,55.20
2018-06-11T16:49:18.358Z,55.40
2018-06-11T16:52:17.095Z,56.30
2018-06-11T16:55:15.241Z,57.60
2018-06-11T16:58:13.394Z,56.60
2018-06-11T17:01:11.391Z,56.60
2018-06-11T17:04:09.836Z,56.40
2018-06-11T17:07:08.757Z,57.80
2018-06-11T17:10:06.846Z,56.80
2018-06-11T17:13:05.300Z,57.10
2018-06-11T17:16:03.628Z,56.50
2018-06-11T17:19:01.798Z,59.00
2018-06-11T17:21:59.931Z,56.60
2018-06-11T17:24:58.270Z,57.30
2018-06-11T17:27:56.224Z,58.40
2018-06-11T17:30:54.076Z,58.40
2018-06-11T17:33:52.375Z,58.40
2018-06-11T17:36:50.554Z,57.50
2018-06-11T17:39:48.653Z,57.50
2018-06-11T17:42:47.210Z,57.30
2018-06-11T17:45:45.510Z,57.80
2018-06-11T17:48:43.744Z,58.40
2018-06-11T17:51:42.125Z,57.90
2018-06-11T17:54:40.958Z,57.90
2018-06-11T17:57:39.612Z,57.60
2018-06-11T18:00:38.080Z,58.10
2018-06-11T18:03:35.880Z,58.10
2018-06-11T18:06:34.150Z,58.80
2018-06-11T18:09:32.344Z,59.20
2018-06-11T18:12:30.597Z,58.30
2018-06-11T18:15:29.026Z,58.00
2018-06-11T18:18:27.424Z,58.80
2018-06-11T18:24:16.215Z,58.80
2018-06-11T18:27:14.546Z,58.70
2018-06-11T18:30:12.713Z,59.30
2018-06-11T18:33:11.120Z,58.30
2018-06-11T18:36:09.803Z,59.90
2018-06-11T18:39:08.492Z,59.40
2018-06-11T18:42:07.205Z,59.90
2018-06-11T18:45:06.000Z,59.70
2018-06-11T18:48:04.481Z,60.20
2018-06-11T18:51:02.728Z,60.20
2018-06-11T18:54:01.554Z,60.90
2018-06-11T18:57:00.061Z,60.40
2018-06-11T18:59:58.012Z,61.20
2018-06-11T19:02:56.185Z,61.30
2018-06-11T19:05:54.362Z,61.00
2018-06-11T19:08:52.949Z,61.50
2018-06-11T19:11:50.909Z,61.40
2018-06-11T19:14:50.033Z,61.70
2018-06-11T19:17:48.622Z,61.60
2018-06-11T19:20:47.263Z,61.50
2018-06-11T19:23:46.191Z,61.10
2018-06-11T19:26:44.509Z,61.10
2018-06-11T19:29:43.222Z,60.90
2018-06-11T19:32:41.667Z,62.20
2018-06-11T19:35:39.977Z,62.00
2018-06-11T19:38:38.493Z,62.00
2018-06-11T19:41:36.964Z,61.70
2018-06-11T19:44:35.131Z,62.60
2018-06-11T19:47:33.809Z,63.20
2018-06-11T19:50:32.679Z,63.40
2018-06-11T19:53:31.091Z,62.80
2018-06-11T19:56:29.775Z,63.60
2018-06-11T19:59:28.294Z,62.80
2018-06-11T20:02:26.725Z,64.20
2018-06-11T20:05:25.208Z,64.90
2018-06-11T20:08:23.428Z,65.20
2018-06-11T20:11:21.716Z,65.30
2018-06-11T20:17:10.026Z,65.10
2018-06-11T20:20:08.426Z,65.60
2018-06-11T20:23:06.932Z,65.10
2018-06-11T20:26:05.717Z,65.10
2018-06-11T20:29:04.636Z,65.20
2018-06-11T20:32:03.483Z,66.10
2018-06-11T20:35:01.721Z,66.50
2018-06-11T20:38:00.239Z,67.20
2018-06-11T20:40:59.082Z,67.30
2018-06-11T20:43:57.357Z,67.50
2018-06-11T20:46:55.915Z,68.40
2018-06-11T20:49:54.072Z,68.60
2018-06-11T20:52:52.711Z,69.50
2018-06-11T20:55:51.579Z,70.00
2018-06-11T20:58:50.068Z,70.40
2018-06-11T21:01:48.241Z,71.20
2018-06-11T21:04:46.828Z,71.80
2018-06-11T21:07:45.242Z,72.10
2018-06-11T21:10:43.496Z,72.00
2018-06-11T21:13:42.208Z,72.60
2018-06-11T21:16:40.641Z,73.00
2018-06-11T21:19:39.379Z,73.40
2018-06-11T21:22:37.803Z,74.00
2018-06-11T21:25:36.263Z,74.40
2018-06-11T21:28:34.910Z,74.80
2018-06-11T21:31:33.834Z,75.40
2018-06-11T21:34:31.893Z,75.80
2018-06-11T21:37:30.664Z,75.80
2018-06-11T21:40:28.769Z,76.30
2018-06-11T21:43:26.650Z,76.40
2018-06-11T21:46:25.434Z,77.20
2018-06-11T21:49:23.776Z,77.20
2018-06-11T21:52:22.420Z,77.90
2018-06-11T21:55:21.031Z,77.60
2018-06-11T21:58:19.175Z,77.70
2018-06-11T22:01:17.362Z,78.30
2018-06-11T22:04:15.253Z,78.40
2018-06-11T22:07:13.950Z,78.50
2018-06-11T22:10:11.915Z,78.80
2018-06-11T22:13:10.514Z,78.90
2018-06-11T22:16:09.621Z,79.20
2018-06-11T22:19:07.534Z,79.50
2018-06-11T22:22:05.834Z,79.40
2018-06-11T22:25:04.638Z,80.80
2018-06-11T22:28:02.791Z,80.40
2018-06-11T22:31:01.011Z,80.20
2018-06-11T22:33:59.164Z,80.30
2018-06-11T22:36:57.760Z,80.70
2018-06-11T22:39:55.714Z,81.20
2018-06-11T22:42:53.842Z,81.30
2018-06-11T22:45:51.885Z,81.30
2018-06-11T22:48:50.882Z,81.20
2018-06-11T22:51:49.386Z,81.20
2018-06-11T22:54:47.707Z,81.60
2018-06-11T22:57:46.159Z,81.50
2018-06-11T23:01:01.129Z,81.80
2018-06-11T23:03:59.328Z,82.70
2018-06-11T23:06:57.480Z,83.40
2018-06-11T23:10:04.294Z,83.60
2018-06-11T23:13:02.619Z,83.60
2018-06-11T23:16:00.700Z,83.60
2018-06-11T23:18:59.094Z,83.00
2018-06-11T23:21:57.633Z,83.80
2018-06-11T23:24:56.344Z,83.80
2018-06-11T23:27:54.364Z,83.60
2018-06-11T23:30:53.031Z,83.80
2018-06-11T23:33:51.509Z,84.40
2018-06-11T23:36:49.751Z,85.00
2018-06-11T23:39:47.551Z,85.10
2018-06-11T23:42:45.950Z,85.50
2018-06-11T23:45:44.630Z,85.40
2018-06-11T23:48:43.230Z,85.80
2018-06-11T23:51:41.611Z,85.00
2018-06-11T23:54:39.417Z,85.20
2018-06-11T23:57:39.202Z,84.80
